ДАННЫЕ О ПОГОДЕ

СЕГОДНЯ
Time Темп. Т росы. Влаж. Давл.
00:07 15.8 13.1 84 1013.1
00:17 15.7 13 84 1013.1
00:27 15.6 12.9 84 1013.1
00:37 15.5 12.8 84 1013.1
00:47 15.3 12.8 85 1013.1
00:57 15.2 12.7 85 1013.1
01:07 15.1 12.6 85 1013.2
01:17 15 12.5 85 1013.3
01:27 14.8 12.3 85 1013.3
01:38 14.7 12.2 85 1013.3
01:48 14.6 12.1 85 1013.4
01:57 14.5 12 85 1013.3
02:07 14.4 11.9 85 1013.3
02:18 14.3 11.8 85 1013.3
02:27 14.2 11.7 85 1013.3
02:36 14.1 11.6 85 1013.3
02:48 14 11.5 85 1013.3
02:58 13.8 11.3 85 1013.3
03:08 13.7 11.2 85 1013.3
03:18 13.7 11.2 85 1013.3
03:28 13.6 11.1 85 1013.3
03:38 13.5 11 85 1013.2
03:47 13.4 10.9 85 1013.2
03:59 13.3 10.8 85 1013.2
04:08 13.2 10.7 85 1013.2
04:18 13.1 10.6 85 1013.2
04:28 13 10.5 85 1013.2
04:39 12.9 10.4 85 1013.1
04:49 12.8 10.3 85 1012.9
04:57 12.7 10.2 85 1012.9
05:09 12.7 10.2 85 1012.8
05:19 12.6 10.1 85 1012.9
05:29 12.6 10.3 86 1012.9
05:38 12.7 10.4 86 1013
05:49 12.7 10.4 86 1013
05:59 12.7 10.4 86 1012.9
06:09 12.6 10.3 86 1013
06:19 12.6 10.3 86 1013
06:29 12.5 10.2 86 1013
06:39 12.4 10.1 86 1013.1
06:49 12.3 10 86 1013.2
07:00 12.2 9.9 86 1013.2
07:09 12.1 9.8 86 1013.4
07:19 12.1 9.8 86 1013.5
07:29 12 9.7 86 1013.5
07:40 12 9.7 86 1013.5
07:50 12 9.7 86 1013.6
07:59 12 9.7 86 1013.6
08:10 12 9.7 86 1013.6
08:20 12.1 9.8 86 1013.7
08:30 12.2 9.9 86 1013.7
08:40 12.3 10 86 1013.7
08:50 12.5 10.2 86 1013.7
09:00 12.7 10.6 87 1013.7
09:10 13 10.9 87 1013.9
09:21 13.2 11.1 87 1013.9
09:30 13.5 11.4 87 1013.9
09:40 13.8 11.7 87 1014
09:51 14.1 12 87 1014
10:01 14.3 12.2 87 1014
10:11 14.6 12.5 87 1014
10:20 14.9 12.8 87 1014
10:30 15.2 13.1 87 1014
10:51 15.9 13.7 87 1014.1
11:01 16.2 14 87 1014.1
11:11 16.7 14.5 87 1014.1
11:19 17 14.8 87 1014.1
11:31 17.4 15 86 1014.1
11:42 17.8 15.4 86 1014
11:51 18.1 15.7 86 1014.1
12:01 18.5 16.1 86 1014.1
12:12 18.8 16.4 86 1014
12:22 19.1 16.5 85 1014.2
12:31 19.4 16.8 85 1014.1
12:41 19.5 16.9 85 1014.1
12:52 19.8 17.2 85 1014
13:02 19.8 17 84 1013.9
13:12 20.1 17.3 84 1013.8
13:22 20.4 17.6 84 1013.8
13:32 20.7 17.7 83 1013.7
13:42 21.1 18.1 83 1013.5
13:52 21.5 18.5 83 1013.4
14:02 21.8 18.8 83 1013.4
14:12 21.9 18.7 82 1013.3
14:21 21.6 18.4 82 1013.3
14:33 21.4 18.2 82 1013.2
14:43 21.3 18.1 82 1013.1
14:52 21.3 17.9 81 1013.1
15:02 21.5 18.1 81 1012.9
15:13 21.6 18.2 81 1012.9
15:23 21.7 18.3 81 1012.8
15:33 21.9 18.5 81 1012.8
15:43 22 18.6 81 1012.8
15:53 22.3 18.7 80 1012.7
16:03 22.5 18.9 80 1012.6
16:12 22.6 19 80 1012.6
16:24 22.7 19.1 80 1012.5
16:33 22.6 19 80 1012.4
16:43 22.4 18.8 80 1012.3
16:54 22.3 18.5 79 1012.3
17:04 22.4 18.6 79 1012.2
17:13 22.6 18.8 79 1012.1
17:23 22.7 18.9 79 1012.1
17:34 22.9 19.1 79 1012
17:44 22.9 19.1 79 1012.1
17:53 22.8 19 79 1012.1
18:04 22.7 18.9 79 1012
18:13 22.4 18.4 78 1012.1
18:24 22 18 78 1012.1
18:34 21.7 17.7 78 1012
18:44 21.4 17.4 78 1012
18:53 21.1 17.1 78 1011.9
19:04 20.7 16.7 78 1011.9
19:15 20.3 16.3 78 1011.9
19:25 19.8 15.9 78 1011.9
19:34 19.5 15.4 77 1011.9
19:44 19.2 15.1 77 1011.8
19:55 18.9 14.8 77 1011.8
20:05 18.6 14.5 77 1011.8
20:15 18.3 14.2 77 1011.9
20:25 18.2 14.3 78 1012
20:35 18 14.1 78 1012.1
20:45 17.9 14 78 1012.1
20:55 17.7 13.8 78 1012.1
21:05 17.6 13.7 78 1012.2

СТАТИСТИКА ЗА ДЕНЬ

2021-09-18
TЕМПЕРАТУРА
СРЕДНЯЯ
16.9
МАКСИМАЛЬНАЯ
22.9
17:34
МИНИМАЛЬНАЯ
12.0
07:29
ДАВЛЕНИЕ
СРЕДНЯЯ
1013.1
МАКСИМАЛЬНАЯ
1014.2
12:22
МИНИМАЛЬНАЯ
1011.8
19:44
ТОЧКА РОСЫ
СРЕДНЯЯ
14.0
МАКСИМАЛЬНАЯ
19.1
16:24
МИНИМАЛЬНАЯ
9.7
07:29
ВЛАЖНОСТЬ
СРЕДНЯЯ
83
МАКСИМАЛЬНАЯ
87
09:00
МИНИМАЛЬНАЯ
77
19:34
TЕМПЕРАТУРА (°C)
МИНИМАЛЬНАЯ
12.0
МАКСИМАЛЬНАЯ
22.9
СРЕДНЯЯ
16.9
ДАВЛЕНИЕ (hpa)
МИНИМАЛЬНАЯ
1011.8
МАКСИМАЛЬНАЯ
1014.2
СРЕДНЯЯ
1013.1
УСТРОЙСТВО